createdAt,value
2019-05-25T00:00:00.041Z,98792.58
2019-05-25T00:02:33.270Z,98788.66
2019-05-25T00:05:07.265Z,98789.03
2019-05-25T00:07:40.782Z,98774.37
2019-05-25T00:10:14.680Z,98768.91
2019-05-25T00:12:48.190Z,98767.67
2019-05-25T00:15:21.350Z,98764.69
2019-05-25T00:17:55.376Z,98774.83
2019-05-25T00:20:28.591Z,98764.63
2019-05-25T00:23:02.883Z,98768.32
2019-05-25T00:25:36.039Z,98772.20
2019-05-25T00:28:09.266Z,98769.92
2019-05-25T00:30:42.549Z,98771.81
2019-05-25T00:33:15.649Z,98764.70
2019-05-25T00:35:48.822Z,98766.83
2019-05-25T00:38:22.301Z,98765.50
2019-05-25T00:40:55.404Z,98761.27
2019-05-25T00:43:29.586Z,98758.48
2019-05-25T00:46:02.830Z,98769.76
2019-05-25T00:48:36.227Z,98773.59
2019-05-25T00:51:09.549Z,98775.37
2019-05-25T00:53:42.943Z,98773.36
2019-05-25T00:56:16.314Z,98765.98
2019-05-25T00:58:49.495Z,98770.00
2019-05-25T01:01:24.502Z,98766.75
2019-05-25T01:03:58.126Z,98762.41
2019-05-25T01:06:31.436Z,98771.84
2019-05-25T01:09:05.843Z,98772.84
2019-05-25T01:11:39.066Z,98764.46
2019-05-25T01:14:12.561Z,98771.01
2019-05-25T01:16:45.890Z,98768.09
2019-05-25T01:19:19.219Z,98765.70
2019-05-25T01:21:52.371Z,98764.83
2019-05-25T01:24:25.408Z,98762.28
2019-05-25T01:26:58.819Z,98768.27
2019-05-25T01:29:31.987Z,98761.76
2019-05-25T01:32:05.409Z,98763.05
2019-05-25T01:34:38.819Z,98761.06
2019-05-25T01:37:12.328Z,98756.19
2019-05-25T01:39:45.578Z,98761.58
2019-05-25T01:42:18.901Z,98761.66
2019-05-25T01:44:52.093Z,98771.89
2019-05-25T01:47:25.453Z,98765.82
2019-05-25T01:49:58.595Z,98762.48
2019-05-25T01:52:31.860Z,98761.59
2019-05-25T01:55:05.367Z,98757.52
2019-05-25T01:57:39.766Z,98757.65
2019-05-25T02:00:13.571Z,98756.33
2019-05-25T02:02:46.985Z,98760.61
2019-05-25T02:05:20.283Z,98760.61
2019-05-25T02:07:53.452Z,98755.78
2019-05-25T02:10:28.981Z,98737.31
2019-05-25T02:13:02.092Z,98760.95
2019-05-25T02:15:35.519Z,98756.77
2019-05-25T02:18:08.813Z,98760.56
2019-05-25T02:20:42.016Z,98763.86
2019-05-25T02:23:15.404Z,98758.92
2019-05-25T02:25:48.699Z,98765.04
2019-05-25T02:28:21.860Z,98766.38
2019-05-25T02:30:55.154Z,98765.05
2019-05-25T02:33:28.362Z,98773.95
2019-05-25T02:36:01.903Z,98778.05
2019-05-25T02:38:35.331Z,98779.08
2019-05-25T02:41:08.545Z,98777.08
2019-05-25T02:43:42.239Z,98777.38
2019-05-25T02:46:15.557Z,98778.31
2019-05-25T02:48:48.935Z,98775.45
2019-05-25T02:51:22.263Z,98766.25
2019-05-25T02:53:55.659Z,98763.61
2019-05-25T02:56:28.853Z,98759.42
2019-05-25T02:59:02.120Z,98766.61
2019-05-25T03:01:35.643Z,98758.22
2019-05-25T03:04:09.143Z,98755.36
2019-05-25T03:06:43.337Z,98760.84
2019-05-25T03:09:18.636Z,98757.26
2019-05-25T03:11:53.791Z,98754.00
2019-05-25T03:14:26.987Z,98753.86
2019-05-25T03:17:00.506Z,98749.77
2019-05-25T03:19:33.802Z,98749.97
2019-05-25T03:22:07.045Z,98750.18
2019-05-25T03:24:40.274Z,98749.20
2019-05-25T03:27:13.720Z,98748.47
2019-05-25T03:29:47.096Z,98746.28
2019-05-25T03:32:20.745Z,98746.00
2019-05-25T03:34:53.881Z,98749.67
2019-05-25T03:37:27.056Z,98747.02
2019-05-25T03:40:00.334Z,98740.88
2019-05-25T03:42:33.666Z,98748.20
2019-05-25T03:45:07.266Z,98739.88
2019-05-25T03:47:40.679Z,98742.11
2019-05-25T03:50:14.455Z,98742.66
2019-05-25T03:52:48.062Z,98741.01
2019-05-25T03:55:21.396Z,98742.34
2019-05-25T03:57:54.736Z,98736.48
2019-05-25T04:00:35.756Z,98738.37
2019-05-25T04:03:09.431Z,98735.11
2019-05-25T04:05:42.743Z,98735.39
2019-05-25T04:08:15.815Z,98727.53
2019-05-25T04:10:49.110Z,98731.91
2019-05-25T04:13:22.189Z,98730.61
2019-05-25T04:15:56.517Z,98730.96
2019-05-25T04:18:30.307Z,98726.25
2019-05-25T04:21:03.406Z,98726.52
2019-05-25T04:23:36.618Z,98724.91
2019-05-25T04:26:21.893Z,98719.09
2019-05-25T04:28:44.799Z,98723.20
2019-05-25T04:31:18.239Z,98717.97
2019-05-25T04:33:51.398Z,98710.59
2019-05-25T04:36:24.499Z,98715.33
2019-05-25T04:38:57.668Z,98718.46
2019-05-25T04:41:31.037Z,98721.68
2019-05-25T04:44:04.269Z,98718.17
2019-05-25T04:46:37.574Z,98714.28
2019-05-25T04:49:10.978Z,98719.87
2019-05-25T04:51:44.067Z,98727.06
2019-05-25T04:54:17.078Z,98716.52
2019-05-25T04:56:50.347Z,98721.14
2019-05-25T04:59:23.255Z,98721.95
2019-05-25T05:01:56.436Z,98724.02
2019-05-25T05:04:29.979Z,98724.99
2019-05-25T05:07:03.229Z,98712.42
2019-05-25T05:09:36.273Z,98712.42
2019-05-25T05:12:09.996Z,98709.78
2019-05-25T05:14:43.100Z,98709.20
2019-05-25T05:17:16.408Z,98705.70
2019-05-25T05:19:49.607Z,98704.20
2019-05-25T05:22:22.925Z,98699.13
2019-05-25T05:24:56.172Z,98697.47
2019-05-25T05:27:29.365Z,98698.29
2019-05-25T05:30:03.842Z,98694.23
2019-05-25T05:32:37.008Z,98687.92
2019-05-25T05:35:10.730Z,98681.10
2019-05-25T05:37:45.212Z,98681.94
2019-05-25T05:40:18.591Z,98683.94
2019-05-25T05:42:54.708Z,98681.50
2019-05-25T05:45:29.707Z,98681.73
2019-05-25T05:48:04.268Z,98675.71
2019-05-25T05:50:39.987Z,98674.52
2019-05-25T05:53:14.302Z,98682.14
2019-05-25T05:55:47.738Z,98673.94
2019-05-25T05:58:21.011Z,98674.55
2019-05-25T06:00:54.086Z,98677.46
2019-05-25T06:03:27.202Z,98663.97
2019-05-25T06:06:00.335Z,98664.08
2019-05-25T06:08:33.579Z,98649.45
2019-05-25T06:11:06.942Z,98658.20
2019-05-25T06:13:40.148Z,98663.53
2019-05-25T06:16:13.514Z,98666.72
2019-05-25T06:18:46.939Z,98660.64
2019-05-25T06:21:20.068Z,98651.14
2019-05-25T06:23:53.431Z,98644.83
2019-05-25T06:26:26.573Z,98643.95
2019-05-25T06:28:59.804Z,98636.66
2019-05-25T06:31:33.081Z,98634.36
2019-05-25T06:34:06.607Z,98631.67
2019-05-25T06:36:39.767Z,98631.08
2019-05-25T06:39:13.147Z,98633.22
2019-05-25T06:41:46.375Z,98627.97
2019-05-25T06:44:19.661Z,98628.41
2019-05-25T06:46:53.156Z,98624.35
2019-05-25T06:49:26.554Z,98617.59
2019-05-25T06:51:59.956Z,98610.23
2019-05-25T06:54:33.293Z,98607.16
2019-05-25T06:57:06.635Z,98602.82
2019-05-25T06:59:40.126Z,98604.75
2019-05-25T07:02:13.541Z,98604.29
2019-05-25T07:04:46.846Z,98601.08
2019-05-25T07:07:19.909Z,98602.38
2019-05-25T07:09:53.291Z,98590.77
2019-05-25T07:12:26.611Z,98591.73
2019-05-25T07:14:59.818Z,98581.96
2019-05-25T07:17:32.968Z,98587.72
2019-05-25T07:20:07.669Z,98595.73
2019-05-25T07:22:41.027Z,98578.87
2019-05-25T07:25:16.142Z,98581.80
2019-05-25T07:27:58.832Z,98581.53
2019-05-25T07:30:24.627Z,98580.56
2019-05-25T07:32:57.887Z,98573.61
2019-05-25T07:35:31.098Z,98576.57
2019-05-25T07:38:04.340Z,98578.02
2019-05-25T07:40:37.765Z,98573.38
2019-05-25T07:43:11.062Z,98576.86
2019-05-25T07:45:44.393Z,98579.01
2019-05-25T07:48:18.687Z,98566.70
2019-05-25T07:50:52.393Z,98571.67
2019-05-25T07:53:25.580Z,98568.03
2019-05-25T07:55:58.767Z,98568.94
2019-05-25T07:58:32.187Z,98565.56
2019-05-25T08:01:05.444Z,98562.78
2019-05-25T08:03:39.892Z,98569.66
2019-05-25T08:06:13.529Z,98567.69
2019-05-25T08:08:46.798Z,98567.98
2019-05-25T08:11:19.976Z,98556.47
2019-05-25T08:13:53.267Z,98565.39
2019-05-25T08:16:26.539Z,98557.20
2019-05-25T08:18:59.770Z,98562.20
2019-05-25T08:21:33.033Z,98546.97
2019-05-25T08:24:06.462Z,98558.81
2019-05-25T08:26:39.734Z,98568.09
2019-05-25T08:29:13.053Z,98558.82
2019-05-25T08:31:46.407Z,98560.86
2019-05-25T08:34:19.815Z,98556.36
2019-05-25T08:36:53.033Z,98567.72
2019-05-25T08:39:27.232Z,98564.45
2019-05-25T08:42:00.534Z,98564.28
2019-05-25T08:44:34.027Z,98558.52
2019-05-25T08:47:07.397Z,98561.08
2019-05-25T08:49:40.809Z,98529.90
2019-05-25T08:52:14.309Z,98563.78
2019-05-25T08:54:47.741Z,98563.73
2019-05-25T08:57:20.703Z,98553.05
2019-05-25T08:59:54.186Z,98555.81
2019-05-25T09:02:27.188Z,98553.50
2019-05-25T09:05:00.209Z,98554.64
2019-05-25T09:07:33.340Z,98556.69
2019-05-25T09:10:07.120Z,98550.98
2019-05-25T09:12:40.343Z,98549.98
2019-05-25T09:15:14.182Z,98550.91
2019-05-25T09:17:47.667Z,98550.83
2019-05-25T09:20:21.111Z,98548.66
2019-05-25T09:22:54.325Z,98550.77
2019-05-25T09:25:27.530Z,98545.02
2019-05-25T09:28:00.765Z,98541.27
2019-05-25T09:30:33.915Z,98545.87
2019-05-25T09:33:07.267Z,98542.83
2019-05-25T09:35:42.551Z,98542.92
2019-05-25T09:38:15.836Z,98539.93
2019-05-25T09:40:49.072Z,98539.95
2019-05-25T09:43:22.258Z,98540.67
2019-05-25T09:45:55.381Z,98532.05
2019-05-25T09:48:29.888Z,98539.32
2019-05-25T09:51:03.407Z,98537.07
2019-05-25T09:53:36.446Z,98535.13
2019-05-25T09:56:09.461Z,98535.89
2019-05-25T09:58:42.850Z,98533.29
2019-05-25T10:01:16.030Z,98527.58
2019-05-25T10:03:49.445Z,98529.92
2019-05-25T10:06:22.798Z,98533.09
2019-05-25T10:08:56.668Z,98527.30
2019-05-25T10:11:29.930Z,98529.02
2019-05-25T10:14:03.331Z,98521.77
2019-05-25T10:16:36.617Z,98524.28
2019-05-25T10:19:09.785Z,98526.63
2019-05-25T10:21:42.984Z,98509.16
2019-05-25T10:24:16.381Z,98511.91
2019-05-25T10:26:49.691Z,98506.33
2019-05-25T10:29:35.936Z,98502.92
2019-05-25T10:31:57.640Z,98502.92
2019-05-25T10:34:30.788Z,98482.78
2019-05-25T10:37:04.182Z,98503.91
2019-05-25T10:39:37.364Z,98497.19
2019-05-25T10:42:10.695Z,98473.82
2019-05-25T10:44:44.093Z,98488.55
2019-05-25T10:47:17.176Z,98486.17
2019-05-25T10:49:50.352Z,98481.27
2019-05-25T10:52:23.751Z,98476.70
2019-05-25T10:54:57.044Z,98477.91
2019-05-25T10:57:30.272Z,98477.84
2019-05-25T11:00:03.534Z,98481.82
2019-05-25T11:02:36.840Z,98481.26
2019-05-25T11:05:11.037Z,98469.02
2019-05-25T11:07:44.340Z,98470.05
2019-05-25T11:10:19.142Z,98470.19
2019-05-25T11:12:52.566Z,98469.36
2019-05-25T11:15:27.178Z,98458.89
2019-05-25T11:18:00.517Z,98465.08
2019-05-25T11:20:33.770Z,98462.09
2019-05-25T11:23:07.194Z,98452.63
2019-05-25T11:25:40.472Z,98452.63
2019-05-25T11:28:14.713Z,98455.62
2019-05-25T11:30:47.973Z,98451.84
2019-05-25T11:33:21.820Z,98450.27
2019-05-25T11:35:56.259Z,98445.98
2019-05-25T11:38:30.535Z,98434.07
2019-05-25T11:41:03.841Z,98426.65
2019-05-25T11:43:37.255Z,98420.16
2019-05-25T11:46:10.636Z,98413.97
2019-05-25T11:48:43.945Z,98412.66
2019-05-25T11:51:17.352Z,98413.34
2019-05-25T11:53:50.769Z,98413.27
2019-05-25T11:56:24.119Z,98400.23
2019-05-25T11:58:57.452Z,98401.33
2019-05-25T12:01:30.734Z,98398.08
2019-05-25T12:04:04.012Z,98397.61
2019-05-25T12:06:37.248Z,98386.06
2019-05-25T12:09:11.162Z,98395.16
2019-05-25T12:11:44.663Z,98388.45
2019-05-25T12:14:18.565Z,98378.86
2019-05-25T12:16:51.916Z,98385.24
2019-05-25T12:19:25.280Z,98383.07
2019-05-25T12:21:59.074Z,98373.51
2019-05-25T12:24:32.466Z,98368.64
2019-05-25T12:27:06.005Z,98359.70
2019-05-25T12:29:39.904Z,98355.54
2019-05-25T12:32:14.118Z,98353.77
2019-05-25T12:34:47.458Z,98350.08
2019-05-25T12:37:22.665Z,98345.80
2019-05-25T12:39:56.636Z,98344.52
2019-05-25T12:42:30.158Z,98340.45
2019-05-25T12:45:03.843Z,98338.84
2019-05-25T12:47:37.974Z,98343.48
2019-05-25T12:50:11.348Z,98330.89
2019-05-25T12:52:45.049Z,98322.58
2019-05-25T12:55:18.257Z,98321.47
2019-05-25T12:57:51.778Z,98322.41
2019-05-25T13:00:24.986Z,98319.70
2019-05-25T13:02:58.379Z,98320.52
2019-05-25T13:05:34.455Z,98317.78
2019-05-25T13:08:07.887Z,98311.02
2019-05-25T13:10:41.207Z,98299.81
2019-05-25T13:13:14.618Z,98294.78
2019-05-25T13:15:48.010Z,98293.02
2019-05-25T13:18:22.162Z,98298.34
2019-05-25T13:20:55.514Z,98293.22
2019-05-25T13:23:28.700Z,98288.61
2019-05-25T13:26:02.270Z,98278.23
2019-05-25T13:28:36.515Z,98274.23
2019-05-25T13:31:11.947Z,98277.50
2019-05-25T13:33:44.845Z,98280.59
2019-05-25T13:36:18.125Z,98283.54
2019-05-25T13:38:51.710Z,98282.25
2019-05-25T13:41:24.817Z,98280.66
2019-05-25T13:43:57.971Z,98272.18
2019-05-25T13:46:31.187Z,98270.16
2019-05-25T13:49:04.739Z,98272.85
2019-05-25T13:51:38.291Z,98267.36
2019-05-25T13:54:11.702Z,98259.44
2019-05-25T13:56:44.991Z,98258.77
2019-05-25T13:59:18.287Z,98266.42
2019-05-25T14:01:51.573Z,98260.37
2019-05-25T14:04:25.850Z,98256.36
2019-05-25T14:06:59.062Z,98259.31
2019-05-25T14:09:32.395Z,98252.48
2019-05-25T14:12:05.891Z,98243.08
2019-05-25T14:14:39.626Z,98235.25
2019-05-25T14:17:12.790Z,98246.93
2019-05-25T14:19:45.913Z,98241.63
2019-05-25T14:22:19.370Z,98242.36
2019-05-25T14:24:52.779Z,98234.67
2019-05-25T14:27:26.203Z,98226.88
2019-05-25T14:29:59.459Z,98232.58
2019-05-25T14:32:32.659Z,98228.33
2019-05-25T14:35:06.680Z,98233.43
2019-05-25T14:37:39.977Z,98232.50
2019-05-25T14:40:14.200Z,98234.88
2019-05-25T14:42:47.270Z,98226.67
2019-05-25T14:45:20.568Z,98224.97
2019-05-25T14:47:53.971Z,98234.48
2019-05-25T14:50:27.364Z,98235.09
2019-05-25T14:53:00.445Z,98238.52
2019-05-25T14:55:33.718Z,98245.43
2019-05-25T14:58:07.132Z,98243.00
2019-05-25T15:00:40.606Z,98241.55
2019-05-25T15:03:14.015Z,98244.89
2019-05-25T15:05:47.404Z,98237.69
2019-05-25T15:08:20.648Z,98243.84
2019-05-25T15:10:53.919Z,98243.94
2019-05-25T15:13:27.232Z,98241.48
2019-05-25T15:16:00.484Z,98253.84
2019-05-25T15:18:33.902Z,98242.19
2019-05-25T15:21:07.191Z,98250.92
2019-05-25T15:23:40.384Z,98247.31
2019-05-25T15:26:13.669Z,98252.55
2019-05-25T15:28:46.920Z,98245.00
2019-05-25T15:31:20.268Z,98241.04
2019-05-25T15:33:53.405Z,98236.03
2019-05-25T15:36:27.245Z,98244.44
2019-05-25T15:39:00.552Z,98246.56
2019-05-25T15:41:33.744Z,98241.87
2019-05-25T15:44:06.942Z,98245.82
2019-05-25T15:46:40.145Z,98243.74
2019-05-25T15:49:13.536Z,98242.86
2019-05-25T15:51:47.208Z,98243.95
2019-05-25T15:54:20.484Z,98235.45
2019-05-25T15:56:53.695Z,98235.03
2019-05-25T15:59:26.814Z,98231.43
2019-05-25T16:02:00.094Z,98233.34
2019-05-25T16:04:33.448Z,98236.05
2019-05-25T16:07:06.878Z,98225.51
2019-05-25T16:09:41.248Z,98224.63
2019-05-25T16:12:14.293Z,98218.17
2019-05-25T16:14:47.751Z,98229.31
2019-05-25T16:17:21.134Z,98216.09
2019-05-25T16:19:54.493Z,98220.59
2019-05-25T16:22:27.803Z,98212.07
2019-05-25T16:25:01.131Z,98206.23
2019-05-25T16:27:34.364Z,98211.38
2019-05-25T16:30:07.963Z,98219.05
2019-05-25T16:33:10.678Z,98219.97
2019-05-25T16:35:17.131Z,98218.43
2019-05-25T16:37:50.718Z,98218.22
2019-05-25T16:40:23.967Z,98213.35
2019-05-25T16:42:57.341Z,98211.19
2019-05-25T16:45:30.613Z,98212.98
2019-05-25T16:48:03.993Z,98204.69
2019-05-25T16:50:37.401Z,98197.53
2019-05-25T16:53:11.108Z,98184.84
2019-05-25T16:55:45.190Z,98196.73
2019-05-25T16:58:18.320Z,98194.11
2019-05-25T17:00:52.524Z,98195.39
2019-05-25T17:03:28.785Z,98190.20
2019-05-25T17:06:00.545Z,98188.64
2019-05-25T17:08:34.251Z,98192.23
2019-05-25T17:11:08.594Z,98187.17
2019-05-25T17:13:43.337Z,98183.69
2019-05-25T17:16:16.669Z,98184.05
2019-05-25T17:18:49.927Z,98184.32
2019-05-25T17:21:23.309Z,98180.09
2019-05-25T17:23:56.479Z,98180.48
2019-05-25T17:26:29.599Z,98174.09
2019-05-25T17:29:02.879Z,98169.09
2019-05-25T17:31:35.952Z,98167.41
2019-05-25T17:34:09.374Z,98169.86
2019-05-25T17:36:42.845Z,98170.00
2019-05-25T17:39:15.960Z,98165.25
2019-05-25T17:41:49.345Z,98160.05
2019-05-25T17:44:24.478Z,98156.58
2019-05-25T17:46:57.994Z,98155.69
2019-05-25T17:49:31.258Z,98153.63
2019-05-25T17:52:04.760Z,98151.27
2019-05-25T17:54:37.966Z,98149.73
2019-05-25T17:57:11.591Z,98148.17
2019-05-25T17:59:45.082Z,98158.60
2019-05-25T18:02:18.379Z,98152.02
2019-05-25T18:04:51.761Z,98149.28
2019-05-25T18:07:25.315Z,98147.70
2019-05-25T18:09:58.657Z,98146.16
2019-05-25T18:12:32.026Z,98147.13
2019-05-25T18:15:06.663Z,98140.69
2019-05-25T18:17:39.970Z,98144.34
2019-05-25T18:20:13.585Z,98145.83
2019-05-25T18:22:46.961Z,98149.60
2019-05-25T18:25:20.377Z,98148.13
2019-05-25T18:27:53.725Z,98151.78
2019-05-25T18:30:27.417Z,98148.52
2019-05-25T18:33:00.438Z,98149.97
2019-05-25T18:35:35.001Z,98150.44
2019-05-25T18:38:08.001Z,98152.38
2019-05-25T18:40:41.149Z,98144.00
2019-05-25T18:43:14.468Z,98153.59
2019-05-25T18:45:47.777Z,98152.98
2019-05-25T18:48:21.244Z,98155.86
2019-05-25T18:50:54.632Z,98143.48
2019-05-25T18:53:27.978Z,98143.49
2019-05-25T18:56:01.241Z,98147.98
2019-05-25T18:58:34.821Z,98150.14
2019-05-25T19:01:08.206Z,98147.36
2019-05-25T19:03:41.612Z,98155.25
2019-05-25T19:06:16.263Z,98158.80
2019-05-25T19:08:49.649Z,98155.66
2019-05-25T19:11:22.989Z,98160.02
2019-05-25T19:13:56.441Z,98160.26
2019-05-25T19:16:29.781Z,98151.78
2019-05-25T19:19:03.110Z,98151.66
2019-05-25T19:21:36.483Z,98147.19
2019-05-25T19:24:10.406Z,98142.19
2019-05-25T19:26:43.788Z,98140.98
2019-05-25T19:29:17.258Z,98141.70
2019-05-25T19:31:50.749Z,98142.20
2019-05-25T19:34:23.889Z,98152.03
2019-05-25T19:36:57.365Z,98155.44
2019-05-25T19:39:31.520Z,98163.55
2019-05-25T19:42:05.147Z,98163.55
2019-05-25T19:44:39.626Z,98156.23
2019-05-25T19:47:12.933Z,98153.68
2019-05-25T19:49:46.223Z,98156.37
2019-05-25T19:52:19.773Z,98161.13
2019-05-25T19:54:53.223Z,98156.72
2019-05-25T19:57:26.718Z,98145.69
2019-05-25T20:00:00.678Z,98155.02
2019-05-25T20:02:33.834Z,98153.78
2019-05-25T20:05:16.256Z,98153.78
2019-05-25T20:07:43.603Z,98152.23
2019-05-25T20:10:17.307Z,98152.84
2019-05-25T20:12:50.851Z,98147.60
2019-05-25T20:15:24.181Z,98138.03
2019-05-25T20:17:57.598Z,98142.77
2019-05-25T20:20:31.081Z,98141.16
2019-05-25T20:23:04.373Z,98136.19
2019-05-25T20:25:37.684Z,98123.92
2019-05-25T20:28:10.970Z,98133.13
2019-05-25T20:30:44.517Z,98135.06
2019-05-25T20:33:26.926Z,98131.44
2019-05-25T20:35:52.603Z,98135.83
2019-05-25T20:38:25.875Z,98132.45
2019-05-25T20:40:58.992Z,98130.66
2019-05-25T20:43:32.308Z,98121.44
2019-05-25T20:46:05.785Z,98121.56
2019-05-25T20:48:39.131Z,98116.47
2019-05-25T20:51:12.178Z,98119.41
2019-05-25T20:53:45.667Z,98113.11
2019-05-25T20:56:18.928Z,98121.58
2019-05-25T20:58:52.150Z,98120.39
2019-05-25T21:01:25.572Z,98123.17
2019-05-25T21:03:58.879Z,98124.98
2019-05-25T21:06:32.235Z,98117.22
2019-05-25T21:09:07.367Z,98120.73
2019-05-25T21:11:40.687Z,98114.81
2019-05-25T21:14:14.142Z,98113.83
2019-05-25T21:16:47.501Z,98118.08
2019-05-25T21:19:24.000Z,98109.47
2019-05-25T21:21:57.256Z,98112.51
2019-05-25T21:24:30.439Z,98110.42
2019-05-25T21:27:04.031Z,98108.73
2019-05-25T21:29:37.309Z,98106.92
2019-05-25T21:32:11.738Z,98109.97
2019-05-25T21:34:45.010Z,98103.87
2019-05-25T21:37:20.573Z,98097.84
2019-05-25T21:39:53.965Z,98100.99
2019-05-25T21:42:27.257Z,98106.55
2019-05-25T21:45:01.050Z,98098.67
2019-05-25T21:47:34.305Z,98103.01
2019-05-25T21:50:08.558Z,98096.48
2019-05-25T21:52:41.996Z,98099.86
2019-05-25T21:55:15.658Z,98100.83
2019-05-25T21:57:49.922Z,98091.77
2019-05-25T22:00:25.079Z,98090.28
2019-05-25T22:03:00.675Z,98092.71
2019-05-25T22:05:34.303Z,98093.92
2019-05-25T22:08:07.605Z,98089.05
2019-05-25T22:10:40.787Z,98086.88
2019-05-25T22:13:26.806Z,98080.72
2019-05-25T22:15:49.271Z,98079.50
2019-05-25T22:18:22.688Z,98079.86
2019-05-25T22:20:56.128Z,98074.52
2019-05-25T22:23:29.481Z,98078.27
2019-05-25T22:26:02.928Z,97994.49
2019-05-25T22:28:44.868Z,98105.75
2019-05-25T22:31:11.358Z,98113.02
2019-05-25T22:33:44.763Z,98116.34
2019-05-25T22:36:18.121Z,98117.67
2019-05-25T22:38:51.488Z,98116.58
2019-05-25T22:41:24.881Z,98103.42
2019-05-25T22:43:58.350Z,98104.51
2019-05-25T22:46:31.519Z,98100.55
2019-05-25T22:49:04.686Z,98094.70
2019-05-25T22:51:37.978Z,98087.31
2019-05-25T22:54:11.202Z,98074.62
2019-05-25T22:56:44.601Z,98070.27
2019-05-25T22:59:17.561Z,98077.91
2019-05-25T23:01:50.834Z,98066.76
2019-05-25T23:04:24.393Z,98065.28
2019-05-25T23:06:58.663Z,98071.34
2019-05-25T23:09:32.087Z,98060.58
2019-05-25T23:12:05.792Z,98056.56
2019-05-25T23:14:39.187Z,98055.13
2019-05-25T23:17:12.466Z,98054.16
2019-05-25T23:19:45.548Z,98055.95
2019-05-25T23:22:18.711Z,98057.68
2019-05-25T23:24:52.149Z,98055.25
2019-05-25T23:27:25.358Z,98058.27
2019-05-25T23:29:59.641Z,98052.95
2019-05-25T23:32:33.045Z,98048.11
2019-05-25T23:35:06.373Z,98042.51
2019-05-25T23:37:39.831Z,98039.27
2019-05-25T23:40:13.038Z,98034.77
2019-05-25T23:42:46.549Z,98038.05
2019-05-25T23:45:20.139Z,98030.53
2019-05-25T23:47:54.462Z,98039.48
2019-05-25T23:50:27.834Z,98037.09
2019-05-25T23:53:01.018Z,98032.20
2019-05-25T23:55:34.339Z,98035.98
2019-05-25T23:58:07.605Z,98033.08
